This is the latest recevied weather packets stored in our database for station/object JA3QOS-13. If no packets are shown the sender has not sent any weather packets the latest 10 day(s).
| Time | Temp. | Humidity | Pressure | Rain* | Wind** | Luminosity | Snow |
|---|---|---|---|---|---|---|---|
| 1777651204 | 8.89° C | 99% | 1008.1 hPa | 0 mm | - | - | - |
| 1777649404 | 8.33° C | 99% | 1008 hPa | 0.25 mm | - | - | - |
| 1777647604 | 8.33° C | 99% | 1007.4 hPa | 0.51 mm | - | - | - |
| 1777645804 | 8.33° C | 99% | 1006.9 hPa | 0.51 mm | - | - | - |
| 1777644005 | 8.33° C | 99% | 1006.2 hPa | 0.25 mm | - | - | - |
| 1777642204 | 8.33° C | 99% | 1005.5 hPa | 0 mm | - | - | - |
| 1777640404 | 8.33° C | 98% | 1004.8 hPa | 0 mm | - | - | - |
| 1777638604 | 8.89° C | 95% | 1004.4 hPa | 0 mm | - | - | - |
| 1777636803 | 8.89° C | 92% | 1004.2 hPa | 0 mm | - | - | - |
| 1777635004 | 8.89° C | 91% | 1003.7 hPa | 0 mm | - | - | - |
| 1777633204 | 9.44° C | 88% | 1003.4 hPa | 0 mm | - | - | - |
| 1777631404 | 9.44° C | 89% | 1003 hPa | 0 mm | - | - | - |
| 1777629604 | 10° C | 91% | 1002.8 hPa | 0 mm | - | - | - |
| 1777627804 | 10° C | 91% | 1002.2 hPa | 0 mm | - | - | - |
| 1777626004 | 10.56° C | 92% | 1001.7 hPa | 0 mm | - | - | - |
| 1777624203 | 10.56° C | 91% | 1001.5 hPa | 0 mm | - | - | - |
| 1777622404 | 11.11° C | 89% | 1001.2 hPa | 0 mm | - | - | - |
| 1777620604 | 12.22° C | 85% | 1000.4 hPa | 0 mm | - | - | - |
| 1777618805 | 12.22° C | 82% | 1000.4 hPa | 0 mm | - | - | - |
| 1777617004 | 13.33° C | 83% | 1000.9 hPa | 0 mm | - | - | - |
| 1777615204 | 15° C | 79% | 1000.7 hPa | 0 mm | - | - | - |
| 1777613404 | 13.89° C | 81% | 1000.5 hPa | 0 mm | - | - | - |
| 1777611604 | 14.44° C | 88% | 1001 hPa | 0 mm | - | - | - |
| 1777609804 | 13.89° C | 90% | 1001.1 hPa | 0 mm | - | - | - |
| 1777608004 | 14.44° C | 98% | 1001.3 hPa | 0 mm | - | - | - |
* Rain latest hour (hover to see other rain measurements)
** Current wind speed in m/s (hover to see current wind gust speed)